Time;durP1;ratioP1;P1;durP2;ratioP2;P2;SDS_P1;SDS_P2;PMS_P1;PMS_P2;Temp;Humidity;BMP_temperature;BMP_pressure;BME280_temperature;BME280_humidity;BME280_pressure;Samples;Min_cycle;Max_cycle;Signal;HPM_P1;HPM_P2
2022/02/23 00:01:52;;;;;;;7.63;4.75;;;;;;;7.00;100.00;96762.50;5064482;28;20273;-57
2022/02/23 00:04:19;;;;;;;5.97;3.47;;;;;;;6.94;100.00;96750.91;5065266;28;20064;-59
2022/02/23 00:06:46;;;;;;;7.07;3.33;;;;;;;6.79;100.00;96718.69;5063925;28;20059;-58
2022/02/23 00:09:12;;;;;;;11.45;5.45;;;;;;;6.89;100.00;96750.41;5065265;28;20087;-59
2022/02/23 00:11:39;;;;;;;10.68;5.38;;;;;;;6.65;100.00;96704.56;5065276;28;20059;-59
2022/02/23 00:14:06;;;;;;;10.23;4.55;;;;;;;7.08;100.00;96767.81;5065050;28;20502;-59
2022/02/23 00:16:33;;;;;;;5.22;2.95;;;;;;;7.08;100.00;96765.06;5063595;28;20056;-61
2022/02/23 00:19:00;;;;;;;8.10;3.28;;;;;;;7.09;100.00;96766.66;5063509;28;20049;-59
2022/02/23 00:21:26;;;;;;;10.07;4.10;;;;;;;6.52;100.00;96702.22;5065032;28;20611;-58
2022/02/23 00:23:53;;;;;;;5.32;2.67;;;;;;;7.05;100.00;96768.53;5065505;28;20434;-58
2022/02/23 00:26:20;;;;;;;6.07;2.40;;;;;;;7.06;100.00;96764.63;5065078;28;20050;-58
2022/02/23 00:28:46;;;;;;;5.07;2.55;;;;;;;7.13;100.00;96762.03;5064518;28;20513;-60
2022/02/23 00:31:13;;;;;;;5.03;2.70;;;;;;;7.22;100.00;96770.91;5063104;28;20063;-60
2022/02/23 00:33:41;;;;;;;4.05;2.00;;;;;;;7.24;100.00;96771.38;5064632;28;20064;-61
2022/02/23 00:36:07;;;;;;;2.28;1.42;;;;;;;7.15;100.00;96765.25;5064726;28;20063;-58
2022/02/23 00:38:34;;;;;;;3.45;1.75;;;;;;;7.08;100.00;96748.53;5063469;28;20054;-60
2022/02/23 00:41:01;;;;;;;7.47;6.82;;;;;;;7.05;100.00;96732.72;5063064;28;20056;-60
2022/02/23 00:43:27;;;;;;;2.47;2.00;;;;;;;7.14;100.00;96773.88;5064293;28;20057;-59
2022/02/23 00:45:54;;;;;;;5.38;4.60;;;;;;;7.10;100.00;96768.25;5064491;28;20511;-58
2022/02/23 00:48:21;;;;;;;3.13;1.80;;;;;;;7.06;100.00;96752.81;5064481;28;20064;-58
2022/02/23 00:50:50;;;;;;;4.05;2.58;;;;;;;7.12;100.00;96771.47;5062766;28;20073;-58
2022/02/23 00:53:17;;;;;;;4.50;2.70;;;;;;;7.16;100.00;96761.31;5064654;28;20048;-61
2022/02/23 00:55:43;;;;;;;6.45;3.03;;;;;;;7.07;100.00;96763.47;5062092;28;20083;-58
2022/02/23 00:58:10;;;;;;;4.90;2.05;;;;;;;6.93;100.00;96752.09;5063852;28;20060;-59
2022/02/23 01:00:37;;;;;;;6.15;2.97;;;;;;;7.14;100.00;96768.34;5062676;28;20491;-59
2022/02/23 01:03:03;;;;;;;8.40;4.15;;;;;;;7.07;100.00;96774.47;5062418;28;20055;-59
2022/02/23 01:05:30;;;;;;;9.95;5.03;;;;;;;7.19;100.00;96770.84;5063026;28;20080;-61
2022/02/23 01:07:57;;;;;;;10.55;4.80;;;;;;;7.15;100.00;96756.97;5064232;28;20074;-59
2022/02/23 01:10:24;;;;;;;8.63;4.53;;;;;;;7.33;100.00;96755.44;5064322;28;20058;-63
2022/02/23 01:12:52;;;;;;;6.85;3.97;;;;;;;7.36;100.00;96768.53;5063933;28;20048;-59
2022/02/23 01:15:20;;;;;;;7.38;3.90;;;;;;;7.41;100.00;96784.00;5062418;28;20044;-57
2022/02/23 01:17:46;;;;;;;7.13;3.80;;;;;;;7.21;100.00;96733.53;5063470;28;20060;-59
2022/02/23 01:20:13;;;;;;;5.82;3.17;;;;;;;7.29;100.00;96760.09;5063954;28;20071;-59
2022/02/23 01:22:40;;;;;;;5.40;2.45;;;;;;;7.35;100.00;96780.69;5064113;28;20432;-58
2022/02/23 01:25:07;;;;;;;6.28;3.90;;;;;;;7.34;100.00;96773.59;5063941;28;20056;-61
2022/02/23 01:27:34;;;;;;;6.93;3.38;;;;;;;7.31;99.18;96788.09;5063920;28;20063;-58
2022/02/23 01:30:05;;;;;;;6.13;3.65;;;;;;;7.33;98.04;96765.69;5064285;28;20059;-58
2022/02/23 01:32:32;;;;;;;8.05;3.35;;;;;;;7.35;98.41;96786.22;5063776;28;20055;-59
2022/02/23 01:34:58;;;;;;;8.05;4.38;;;;;;;7.25;99.53;96766.66;5064011;28;20057;-59
2022/02/23 01:37:25;;;;;;;11.57;4.35;;;;;;;7.38;99.28;96779.97;5064230;28;20060;-58
2022/02/23 01:39:52;;;;;;;7.85;3.80;;;;;;;7.35;100.00;96786.22;5063645;28;20044;-59
2022/02/23 01:42:18;;;;;;;7.65;4.10;;;;;;;6.77;100.00;96707.22;5062491;28;20052;-61
2022/02/23 01:44:45;;;;;;;5.40;3.15;;;;;;;7.40;99.63;96783.19;5064060;28;20077;-60
2022/02/23 01:47:12;;;;;;;5.75;3.08;;;;;;;7.34;99.43;96790.13;5063723;28;20066;-61
2022/02/23 01:49:39;;;;;;;6.93;3.50;;;;;;;7.31;100.00;96796.34;5063555;28;20045;-58
2022/02/23 01:52:09;;;;;;;5.47;3.03;;;;;;;7.31;100.00;96785.34;5063911;28;20111;-58
2022/02/23 01:54:35;;;;;;;5.85;3.10;;;;;;;7.29;100.00;96787.63;5063613;28;20139;-59
2022/02/23 01:57:02;;;;;;;8.88;4.07;;;;;;;7.29;100.00;96782.13;5063513;28;20075;-59
2022/02/23 01:59:29;;;;;;;11.93;5.78;;;;;;;7.29;100.00;96790.41;5061893;28;20055;-58
2022/02/23 02:01:56;;;;;;;19.40;8.00;;;;;;;7.28;100.00;96783.28;5062034;28;20048;-59
2022/02/23 02:04:23;;;;;;;19.67;8.02;;;;;;;7.14;100.00;96777.44;5063691;28;20477;-58
2022/02/23 02:06:50;;;;;;;21.73;10.57;;;;;;;7.24;100.00;96796.16;5063450;28;20407;-59
2022/02/23 02:09:20;;;;;;;13.20;6.47;;;;;;;7.26;100.00;96799.38;5063239;28;20088;-60
2022/02/23 02:11:47;;;;;;;9.48;5.03;;;;;;;7.13;100.00;96778.56;5061916;28;20056;-59
2022/02/23 02:14:13;;;;;;;10.88;4.43;;;;;;;6.65;100.00;96687.25;5063295;28;20062;-58
2022/02/23 02:16:40;;;;;;;9.85;4.13;;;;;;;7.06;100.00;96789.41;5063305;28;20529;-59
2022/02/23 02:19:07;;;;;;;8.07;3.53;;;;;;;7.16;100.00;96805.41;5063128;28;20052;-60
2022/02/23 02:21:55;;;;;;;9.00;3.80;;;;;;;7.29;100.00;96795.91;5061850;28;20374;-57
2022/02/23 02:24:25;;;;;;;8.38;4.35;;;;;;;7.23;100.00;96811.09;5063479;28;20049;-58
2022/02/23 02:26:51;;;;;;;6.40;3.17;;;;;;;7.14;100.00;96801.41;5062902;28;20692;-59
2022/02/23 02:29:18;;;;;;;8.75;4.25;;;;;;;7.23;100.00;96816.63;5062066;28;20048;-59
2022/02/23 02:31:46;;;;;;;10.13;2.83;;;;;;;7.20;100.00;96822.81;5061551;28;20067;-58
2022/02/23 02:34:13;;;;;;;5.72;2.55;;;;;;;6.44;100.00;96712.22;5062741;28;20067;-59
2022/02/23 02:36:39;;;;;;;9.25;3.75;;;;;;;7.04;100.00;96819.25;5062779;28;20049;-59
2022/02/23 02:39:07;;;;;;;9.27;3.65;;;;;;;7.14;100.00;96834.47;5062624;28;20053;-60
2022/02/23 02:41:35;;;;;;;8.95;4.20;;;;;;;6.86;100.00;96784.91;5062771;28;20103;-58
2022/02/23 02:44:03;;;;;;;9.25;3.22;;;;;;;6.79;100.00;96782.00;5062771;28;20052;-58
2022/02/23 02:46:30;;;;;;;7.07;3.75;;;;;;;7.14;100.00;96862.00;5062966;28;20052;-58
2022/02/23 02:48:57;;;;;;;4.32;2.15;;;;;;;7.22;100.00;96864.56;5061707;28;20127;-57
2022/02/23 02:51:23;;;;;;;3.95;2.25;;;;;;;6.58;100.00;96766.84;5063191;28;20101;-60
2022/02/23 02:53:50;;;;;;;3.88;2.60;;;;;;;7.20;100.00;96855.06;5062800;28;20055;-59
2022/02/23 02:56:17;;;;;;;3.80;2.10;;;;;;;7.11;100.00;96863.50;5062572;28;20521;-59
2022/02/23 02:58:51;;;;;;;6.03;3.35;;;;;;;7.11;100.00;96857.19;5062621;28;20053;-59
2022/02/23 03:01:19;;;;;;;4.90;2.92;;;;;;;7.23;100.00;96871.69;5063026;28;20478;-59
2022/02/23 03:03:47;;;;;;;3.15;1.52;;;;;;;6.76;100.00;96878.22;5066305;28;20464;-61
2022/02/23 03:06:14;;;;;;;4.82;2.00;;;;;;;6.33;100.00;96865.16;5066001;28;20048;-59
2022/02/23 03:08:42;;;;;;;4.03;2.17;;;;;;;6.73;100.00;96877.00;5066272;28;20549;-60
2022/02/23 03:11:09;;;;;;;3.75;2.03;;;;;;;6.95;100.00;96875.63;5066456;28;20044;-58
2022/02/23 03:13:36;;;;;;;2.88;1.92;;;;;;;6.92;100.00;96882.66;5066689;28;20044;-58
2022/02/23 03:16:04;;;;;;;3.28;1.95;;;;;;;7.01;100.00;96886.03;5065049;28;20204;-58
2022/02/23 03:18:32;;;;;;;4.05;1.98;;;;;;;7.00;100.00;96884.41;5065580;28;20049;-60
2022/02/23 03:21:00;;;;;;;6.15;3.30;;;;;;;7.06;100.00;96888.56;5065905;28;20052;-61
2022/02/23 03:23:28;;;;;;;8.48;3.90;;;;;;;6.73;100.00;96838.44;5064659;28;20131;-60
2022/02/23 03:25:54;;;;;;;10.32;4.15;;;;;;;7.11;100.00;96885.53;5064614;28;20063;-58
2022/02/23 03:28:21;;;;;;;18.92;8.38;;;;;;;7.10;100.00;96875.66;5065805;28;20059;-60
2022/02/23 03:30:48;;;;;;;11.10;5.70;;;;;;;7.22;100.00;96889.38;5064489;28;20044;-60
2022/02/23 03:33:15;;;;;;;7.55;4.07;;;;;;;7.17;100.00;96888.84;5066136;28;20048;-59
2022/02/23 03:35:43;;;;;;;13.35;5.13;;;;;;;7.02;100.00;96865.59;5065794;28;20052;-60
2022/02/23 03:38:10;;;;;;;15.23;5.03;;;;;;;6.88;98.13;96843.19;5065632;28;20052;-60
2022/02/23 03:40:38;;;;;;;15.55;6.10;;;;;;;7.28;98.10;96907.25;5065877;28;20613;-60
2022/02/23 03:43:06;;;;;;;12.20;6.53;;;;;;;7.22;98.44;96892.13;5065496;28;20515;-59
2022/02/23 03:45:33;;;;;;;9.32;4.90;;;;;;;7.34;97.85;96911.34;5065753;28;20052;-60
2022/02/23 03:48:01;;;;;;;12.93;5.80;;;;;;;7.39;97.85;96924.88;5065627;28;20059;-58
2022/02/23 03:50:27;;;;;;;9.55;4.57;;;;;;;7.32;97.42;96902.63;5065235;28;20056;-59
2022/02/23 03:52:54;;;;;;;8.90;5.13;;;;;;;7.18;96.48;96882.97;5066160;28;20091;-59
2022/02/23 03:55:21;;;;;;;13.55;6.93;;;;;;;7.54;95.61;96928.78;5065782;28;20055;-58
2022/02/23 03:57:48;;;;;;;15.02;7.35;;;;;;;7.53;95.33;96919.75;5065565;28;20057;-58
2022/02/23 04:00:16;;;;;;;34.97;16.10;;;;;;;7.50;95.30;96925.16;5064114;28;20049;-61
2022/02/23 04:02:43;;;;;;;27.15;12.75;;;;;;;7.38;95.37;96923.25;5065125;28;20048;-58
2022/02/23 04:05:11;;;;;;;36.00;15.93;;;;;;;7.40;95.30;96926.47;5065376;28;20064;-59
2022/02/23 04:07:38;;;;;;;26.90;12.57;;;;;;;7.45;94.74;96933.69;5065324;28;20057;-58
2022/02/23 04:10:06;;;;;;;16.83;7.15;;;;;;;7.39;94.66;96918.56;5063463;28;20056;-59
2022/02/23 04:12:33;;;;;;;16.52;7.72;;;;;;;7.52;94.98;96934.66;5065181;28;20056;-60
2022/02/23 04:15:00;;;;;;;20.15;8.63;;;;;;;7.51;94.46;96935.81;5063519;28;20578;-60
2022/02/23 04:17:27;;;;;;;20.10;9.95;;;;;;;7.13;94.67;96874.97;5064845;28;20053;-57
2022/02/23 04:19:54;;;;;;;19.80;9.23;;;;;;;7.29;95.20;96908.84;5065488;28;20053;-60
2022/02/23 04:22:20;;;;;;;23.38;9.05;;;;;;;7.60;93.39;96947.47;5063808;28;20057;-59
2022/02/23 04:24:47;;;;;;;33.15;13.45;;;;;;;6.89;92.26;96833.78;5065149;28;20052;-59
2022/02/23 04:27:14;;;;;;;40.78;19.55;;;;;;;7.55;92.68;96950.53;5064841;28;20052;-59
2022/02/23 04:29:40;;;;;;;36.03;16.67;;;;;;;7.51;93.29;96955.13;5064928;28;20105;-58
2022/02/23 04:32:07;;;;;;;35.90;17.02;;;;;;;7.52;93.56;96951.19;5064899;28;20048;-58
2022/02/23 04:34:34;;;;;;;35.42;17.35;;;;;;;7.43;94.09;96950.56;5064724;28;20063;-59
2022/02/23 04:37:01;;;;;;;33.95;15.95;;;;;;;7.44;95.12;96952.19;5064586;28;20059;-59
2022/02/23 04:39:28;;;;;;;32.20;16.15;;;;;;;7.34;96.22;96955.44;5064260;28;20048;-60
2022/02/23 04:41:55;;;;;;;31.15;16.13;;;;;;;7.47;95.02;96957.00;5064769;28;20048;-58
2022/02/23 04:44:21;;;;;;;44.10;23.55;;;;;;;7.48;94.06;96957.78;5064586;28;20051;-61
2022/02/23 04:46:48;;;;;;;53.55;26.85;;;;;;;7.29;93.68;96936.41;5064356;28;20049;-58
2022/02/23 04:49:15;;;;;;;56.65;27.23;;;;;;;7.11;95.14;96918.56;5064132;28;20048;-60
2022/02/23 04:51:42;;;;;;;61.55;28.63;;;;;;;7.43;95.20;96964.34;5064527;28;20052;-59
2022/02/23 04:54:08;;;;;;;54.17;25.25;;;;;;;7.50;95.02;96970.06;5063927;28;20505;-60
2022/02/23 04:56:36;;;;;;;48.00;23.15;;;;;;;7.14;95.58;96917.88;5064381;28;20048;-60
2022/02/23 04:59:03;;;;;;;49.38;25.30;;;;;;;7.41;94.52;96961.13;5064113;28;20055;-60
2022/02/23 05:01:30;;;;;;;36.58;18.92;;;;;;;7.09;94.70;96920.88;5062783;28;20044;-59
2022/02/23 05:03:57;;;;;;;33.33;17.30;;;;;;;7.32;94.16;96967.94;5064366;28;20055;-59
2022/02/23 05:06:24;;;;;;;19.95;11.05;;;;;;;7.35;94.11;96968.06;5064176;28;20048;-60
2022/02/23 05:08:50;;;;;;;14.85;7.60;;;;;;;7.21;92.65;96934.59;5064341;28;20064;-59
2022/02/23 05:11:17;;;;;;;10.77;5.53;;;;;;;6.92;89.86;96904.69;5063544;28;20050;-61
2022/02/23 05:13:44;;;;;;;11.43;5.07;;;;;;;7.35;90.31;96987.34;5063869;28;20067;-58
2022/02/23 05:16:10;;;;;;;22.35;8.85;;;;;;;7.24;93.21;96977.97;5062050;28;20044;-58
2022/02/23 05:18:37;;;;;;;23.65;12.63;;;;;;;3.91;94.95;96479.41;5063996;28;20152;-58
2022/02/23 05:21:04;;;;;;;36.63;18.20;;;;;;;6.59;96.23;96895.03;5063883;28;20055;-59
2022/02/23 05:23:31;;;;;;;32.17;15.55;;;;;;;7.21;95.35;96995.19;5063344;28;20071;-59
2022/02/23 05:25:59;;;;;;;24.13;10.60;;;;;;;6.97;90.70;96966.94;5063742;28;20049;-58
2022/02/23 05:28:26;;;;;;;17.08;8.98;;;;;;;7.27;89.83;97007.56;5063357;28;20549;-58
2022/02/23 05:30:53;;;;;;;15.40;7.65;;;;;;;7.32;89.88;97012.03;5063590;28;20075;-58
2022/02/23 05:33:19;;;;;;;14.27;6.43;;;;;;;7.37;92.53;97023.63;5061977;28;20056;-57
2022/02/23 05:35:46;;;;;;;11.23;5.63;;;;;;;7.16;94.83;97003.69;5062032;28;20056;-61
2022/02/23 05:38:13;;;;;;;7.07;4.03;;;;;;;6.97;94.60;96991.72;5063384;28;20060;-60
2022/02/23 05:40:39;;;;;;;7.28;3.72;;;;;;;7.25;94.74;97034.69;5064367;28;20495;-59
2022/02/23 05:43:07;;;;;;;4.93;3.08;;;;;;;7.24;94.81;97038.56;5063993;28;20427;-58
2022/02/23 05:45:34;;;;;;;4.95;3.15;;;;;;;6.99;94.35;96986.66;5063651;28;20396;-64
2022/02/23 05:48:00;;;;;;;8.32;2.38;;;;;;;6.86;97.85;97038.19;5063713;28;20110;-58
2022/02/23 05:50:27;;;;;;;7.72;3.15;;;;;;;6.92;100.00;97042.34;5063620;28;20426;-60
2022/02/23 05:52:57;;;;;;;5.30;2.85;;;;;;;6.99;99.47;97039.78;5063877;28;20060;-61
2022/02/23 05:55:25;;;;;;;6.75;2.50;;;;;;;7.07;99.61;97044.38;5062542;28;20056;-58
2022/02/23 05:57:52;;;;;;;7.70;3.97;;;;;;;7.20;98.47;97048.69;5063444;28;20060;-58
2022/02/23 06:00:18;;;;;;;5.28;2.90;;;;;;;6.77;100.00;97067.81;5063603;28;20055;-60
2022/02/23 06:02:45;;;;;;;7.65;4.03;;;;;;;6.59;100.00;97060.91;5061742;28;20048;-59
2022/02/23 06:05:13;;;;;;;8.27;3.97;;;;;;;6.87;100.00;97072.84;5063479;28;20048;-59
2022/02/23 06:07:40;;;;;;;16.52;8.32;;;;;;;6.94;100.00;97040.03;5063440;28;20056;-59
2022/02/23 06:10:07;;;;;;;26.40;12.93;;;;;;;7.16;100.00;97053.28;5063592;28;20391;-58
2022/02/23 06:12:34;;;;;;;46.58;19.73;;;;;;;7.28;100.00;97064.28;5063300;28;20052;-58
2022/02/23 06:15:01;;;;;;;57.45;21.05;;;;;;;7.23;99.57;97067.28;5063155;28;20522;-58
2022/02/23 06:17:28;;;;;;;57.33;17.90;;;;;;;7.46;97.91;97073.88;5063365;28;20048;-58
2022/02/23 06:19:55;;;;;;;43.80;14.32;;;;;;;6.92;95.90;96998.28;5063397;28;20053;-60
2022/02/23 06:22:22;;;;;;;59.97;16.58;;;;;;;7.39;94.68;97051.63;5061598;28;20052;-59
2022/02/23 06:24:48;;;;;;;52.75;16.73;;;;;;;7.65;93.66;97076.78;5062877;28;20068;-59
2022/02/23 06:27:17;;;;;;;37.42;16.73;;;;;;;7.68;93.66;97092.63;5063116;28;20052;-60
2022/02/23 06:29:46;;;;;;;47.40;21.60;;;;;;;7.74;93.17;97090.44;5063186;28;20131;-59
2022/02/23 06:32:13;;;;;;;36.97;17.80;;;;;;;7.67;93.41;97093.78;5063207;28;20083;-58
2022/02/23 06:34:40;;;;;;;25.42;12.35;;;;;;;7.76;93.36;97088.13;5061671;28;20430;-59
2022/02/23 06:37:06;;;;;;;27.23;13.63;;;;;;;7.78;92.93;97093.28;5064715;28;20055;-59
2022/02/23 06:39:38;;;;;;;25.35;15.55;;;;;;;7.66;93.71;97070.13;5065545;28;20056;-58
2022/02/23 06:42:05;;;;;;;37.15;17.08;;;;;;;7.46;94.10;97040.78;5065579;28;20518;-59
2022/02/23 06:44:33;;;;;;;30.77;14.75;;;;;;;7.76;92.43;97103.88;5065340;28;20062;-58
2022/02/23 06:47:00;;;;;;;25.90;13.73;;;;;;;7.38;93.27;97027.19;5067010;28;20052;-58
2022/02/23 06:49:31;;;;;;;30.60;14.35;;;;;;;7.64;92.33;97053.13;5066522;28;20076;-60
2022/02/23 06:52:00;;;;;;;48.65;20.48;;;;;;;8.05;92.97;97117.28;5066857;28;20052;-59
2022/02/23 06:54:29;;;;;;;34.65;16.02;;;;;;;8.11;92.90;97110.38;5065134;28;20503;-60
2022/02/23 06:56:56;;;;;;;31.55;15.25;;;;;;;8.04;92.05;97096.38;5066665;28;20052;-59
2022/02/23 06:59:23;;;;;;;33.70;17.52;;;;;;;8.31;91.53;97115.69;5066490;28;20427;-57
2022/02/23 07:01:49;;;;;;;34.38;19.30;;;;;;;8.31;88.81;97101.91;5065800;28;20526;-60
2022/02/23 07:04:16;;;;;;;44.05;17.42;;;;;;;8.40;87.55;97110.81;5066024;28;20051;-60
2022/02/23 07:06:43;;;;;;;31.77;14.27;;;;;;;8.55;87.66;97117.50;5066062;28;20048;-60
2022/02/23 07:09:10;;;;;;;22.80;12.27;;;;;;;8.29;87.00;97090.41;5059505;28;20079;-60
2022/02/23 07:11:37;;;;;;;20.98;10.90;;;;;;;8.53;87.03;97111.53;5065978;28;20057;-58
2022/02/23 07:14:05;;;;;;;17.45;9.32;;;;;;;8.36;87.41;97081.50;5064148;28;20062;-60
2022/02/23 07:16:33;;;;;;;13.35;8.63;;;;;;;8.71;85.70;97129.38;5065774;28;20490;-57
2022/02/23 07:19:00;;;;;;;15.32;8.63;;;;;;;8.51;85.77;97102.78;5066208;28;20063;-58
2022/02/23 07:21:27;;;;;;;14.57;9.32;;;;;;;8.96;85.64;97131.56;5066136;28;20139;-60
2022/02/23 07:23:54;;;;;;;15.10;9.43;;;;;;;8.99;84.24;97138.34;5063744;28;20068;-62
2022/02/23 07:26:21;;;;;;;11.40;6.68;;;;;;;6.78;81.97;96805.16;5063437;28;20049;-60
2022/02/23 07:28:49;;;;;;;7.78;4.15;;;;;;;8.97;81.93;97143.41;5049336;28;20056;-57
2022/02/23 07:31:19;;;;;;;6.82;4.07;;;;;;;8.91;80.04;97139.34;5047950;28;20055;-58
2022/02/23 07:33:46;;;;;;;12.55;5.88;;;;;;;6.93;80.03;96790.63;5061399;28;20641;-55
2022/02/23 07:36:14;;;;;;;12.88;8.07;;;;;;;9.23;79.65;97138.16;5064619;28;20052;-61
2022/02/23 07:38:43;;;;;;;12.57;8.18;;;;;;;9.42;80.67;97149.22;5056452;28;20491;-62
2022/02/23 07:41:11;;;;;;;5.57;3.20;;;;;;;9.32;76.75;97154.53;5064771;28;20110;-60
2022/02/23 07:43:58;;;;;;;15.85;5.47;;;;;;;8.99;77.10;97088.63;5064766;28;20048;-61
2022/02/23 07:46:27;;;;;;;8.27;3.60;;;;;;;9.25;76.33;97149.63;5063114;28;20679;-59
2022/02/23 07:48:58;;;;;;;12.77;6.63;;;;;;;9.39;76.15;97149.94;5064343;28;20048;-58
2022/02/23 07:51:25;;;;;;;12.15;5.30;;;;;;;9.59;75.88;97165.44;5059168;28;20048;-57
2022/02/23 07:53:54;;;;;;;18.67;8.07;;;;;;;9.45;75.67;97142.19;5063929;28;20044;-59
2022/02/23 07:56:22;;;;;;;16.83;7.60;;;;;;;9.50;75.91;97120.59;5063559;28;20055;-59
2022/02/23 07:58:50;;;;;;;13.43;6.60;;;;;;;9.80;73.28;97146.53;5064018;28;20064;-58
2022/02/23 08:01:30;;;;;;;7.80;3.38;;;;;;;9.83;74.67;97159.63;5062652;28;20054;-64
2022/02/23 08:03:58;;;;;;;14.20;6.53;;;;;;;9.97;72.04;97159.97;5078574;28;20514;-60
2022/02/23 08:06:25;;;;;;;13.23;4.97;;;;;;;10.26;72.78;97155.81;5062664;28;20557;-57
2022/02/23 08:08:53;;;;;;;16.17;6.45;;;;;;;10.56;70.95;97151.25;5062878;28;20772;-56
2022/02/23 08:11:20;;;;;;;44.92;15.85;;;;;;;10.65;68.68;97158.16;5062490;28;20048;-60
2022/02/23 08:13:48;;;;;;;8.82;3.42;;;;;;;10.11;68.69;97076.44;5061626;28;20076;-59
2022/02/23 08:21:53;;;;;;;3.00;1.88;;;;;;;11.17;68.13;97163.06;5063597;28;20055;-57
2022/02/23 08:24:21;;;;;;;25.70;9.38;;;;;;;11.18;65.32;97125.00;5063783;28;20518;-59
2022/02/23 08:26:50;;;;;;;11.70;4.78;;;;;;;11.54;67.31;97138.28;5063530;28;20052;-56
2022/02/23 08:29:17;;;;;;;3.55;2.20;;;;;;;11.43;67.26;97153.97;5062932;28;20044;-59
2022/02/23 08:31:43;;;;;;;5.60;3.25;;;;;;;11.44;67.39;97138.91;5063741;28;20054;-60
2022/02/23 08:34:10;;;;;;;8.98;3.55;;;;;;;11.86;66.00;97156.19;5063768;28;20063;-59
2022/02/23 08:36:37;;;;;;;13.50;5.68;;;;;;;11.89;63.73;97160.97;5064127;28;20079;-58
2022/02/23 08:39:05;;;;;;;14.55;6.43;;;;;;;11.77;64.87;97122.38;5060934;28;20052;-55
2022/02/23 08:41:32;;;;;;;2.90;2.15;;;;;;;12.22;63.05;97135.25;5063196;28;20235;-55
2022/02/23 08:44:18;;;;;;;2.67;1.70;;;;;;;12.36;62.39;97158.41;5062699;28;20837;-59
2022/02/23 08:46:45;;;;;;;4.35;2.50;;;;;;;11.82;63.32;97095.06;5052028;28;20049;-56
2022/02/23 08:49:13;;;;;;;1.65;1.30;;;;;;;12.32;60.44;97146.47;5062512;28;20098;-58
2022/02/23 08:51:44;;;;;;;4.10;2.45;;;;;;;12.30;61.10;97142.50;5063237;28;20054;-62
2022/02/23 08:54:12;;;;;;;4.35;2.83;;;;;;;12.41;61.21;97132.28;5063524;28;20495;-57
2022/02/23 08:56:39;;;;;;;2.90;1.55;;;;;;;12.83;60.90;97157.75;5062399;28;20127;-58
2022/02/23 08:59:07;;;;;;;2.08;1.30;;;;;;;12.69;61.31;97161.19;5060627;28;20850;-58
2022/02/23 09:01:34;;;;;;;1.88;1.60;;;;;;;13.05;59.62;97168.72;5062606;28;20074;-56
2022/02/23 09:04:02;;;;;;;2.53;1.27;;;;;;;11.04;57.62;96814.34;5062847;28;20144;-57
2022/02/23 09:06:32;;;;;;;6.43;2.33;;;;;;;12.75;59.40;97165.22;5062974;28;20404;-60
2022/02/23 09:09:01;;;;;;;1.55;1.38;;;;;;;12.65;58.15;97115.88;5062503;28;20063;-55
2022/02/23 09:11:27;;;;;;;1.40;1.30;;;;;;;12.99;58.73;97159.09;5062892;28;20052;-61
2022/02/23 09:13:54;;;;;;;0.93;0.90;;;;;;;12.76;58.04;97122.34;5063743;28;20435;-56
2022/02/23 09:16:26;;;;;;;4.15;1.95;;;;;;;12.85;58.26;97141.50;5063558;28;20117;-61
2022/02/23 09:18:53;;;;;;;2.65;1.40;;;;;;;13.23;54.33;97163.31;5061856;28;20495;-58
2022/02/23 09:21:20;;;;;;;1.45;1.20;;;;;;;13.35;54.34;97160.25;5061576;28;20060;-60
2022/02/23 09:23:46;;;;;;;22.33;5.22;;;;;;;13.62;54.91;97176.34;5060708;28;20052;-57
2022/02/23 09:26:15;;;;;;;3.28;2.13;;;;;;;13.64;53.55;97168.41;5063371;28;20055;-66
2022/02/23 09:28:43;;;;;;;2.97;1.70;;;;;;;13.58;52.71;97161.59;5062416;28;20048;-63
2022/02/23 09:31:12;;;;;;;4.60;2.47;;;;;;;13.68;52.85;97172.03;5062588;28;20150;-57
2022/02/23 09:33:40;;;;;;;2.33;1.48;;;;;;;14.10;53.44;97168.69;5062583;28;20434;-62
2022/02/23 09:36:13;;;;;;;2.08;1.70;;;;;;;14.22;50.96;97164.78;5062375;28;20045;-62
2022/02/23 09:38:41;;;;;;;1.30;1.20;;;;;;;14.05;50.99;97162.69;5062802;28;20139;-69
2022/02/23 09:41:10;;;;;;;3.83;1.50;;;;;;;13.99;51.29;97128.06;5063196;28;20060;-62
2022/02/23 09:43:38;;;;;;;2.17;1.10;;;;;;;13.35;50.36;97161.03;5061107;28;20072;-58
2022/02/23 09:46:08;;;;;;;2.22;1.70;;;;;;;13.21;51.36;97168.47;5061603;28;20159;-56
2022/02/23 09:48:35;;;;;;;1.88;1.67;;;;;;;13.23;51.44;97161.31;5061191;28;20067;-57
2022/02/23 09:51:04;;;;;;;2.70;1.30;;;;;;;13.60;51.08;97161.22;5060770;28;20052;-55
2022/02/23 09:53:31;;;;;;;2.50;1.45;;;;;;;13.15;51.31;97117.94;5061089;28;20060;-57
2022/02/23 09:55:59;;;;;;;1.50;1.40;;;;;;;13.21;51.65;97093.38;5061430;28;20061;-61
2022/02/23 09:58:27;;;;;;;1.40;1.25;;;;;;;12.91;51.44;97160.22;5057701;28;20052;-62
2022/02/23 10:01:02;;;;;;;1.40;1.27;;;;;;;12.85;51.51;97158.94;5060588;28;20059;-59
2022/02/23 10:03:29;;;;;;;1.83;1.30;;;;;;;12.23;53.23;97082.09;5061628;28;20105;-61
2022/02/23 10:05:55;;;;;;;1.98;1.33;;;;;;;12.88;53.13;97163.75;5056127;28;20061;-60
2022/02/23 10:08:33;;;;;;;3.47;1.70;;;;;;;12.35;52.17;97123.50;5061646;28;20056;-58
2022/02/23 10:11:02;;;;;;;1.48;1.15;;;;;;;13.10;52.64;97154.44;5062536;28;20334;-62
2022/02/23 10:13:29;;;;;;;1.77;1.25;;;;;;;13.18;51.94;97161.66;5066844;28;20411;-56
2022/02/23 10:15:58;;;;;;;1.70;1.40;;;;;;;13.61;51.50;97162.81;5066942;28;20064;-61
2022/02/23 10:18:46;;;;;;;3.58;2.10;;;;;;;12.94;51.47;97162.25;5065759;28;20052;-58
2022/02/23 10:21:17;;;;;;;1.52;1.13;;;;;;;12.68;50.46;97147.66;5066120;28;20922;-56
2022/02/23 10:23:44;;;;;;;2.70;1.50;;;;;;;13.13;52.80;97153.72;5065804;28;20442;-62
2022/02/23 10:26:12;;;;;;;2.25;1.70;;;;;;;13.78;51.90;97116.78;5066181;28;20442;-53
2022/02/23 10:28:40;;;;;;;1.92;1.70;;;;;;;14.11;51.62;97152.78;5066742;28;20091;-62
2022/02/23 10:31:15;;;;;;;25.52;10.25;;;;;;;14.00;49.93;97046.09;5064715;28;20084;-60
2022/02/23 10:33:43;;;;;;;2.38;1.90;;;;;;;14.88;48.24;97136.34;5066426;28;20052;-58
2022/02/23 10:36:33;;;;;;;2.72;1.98;;;;;;;14.97;49.85;97139.53;5066433;28;20059;-54
2022/02/23 10:39:10;;;;;;;2.28;2.00;;;;;;;14.15;49.61;97070.00;5066460;28;20052;-53
2022/02/23 10:41:42;;;;;;;1.85;1.50;;;;;;;14.21;49.39;97107.47;5066367;28;20117;-56
2022/02/23 10:44:09;;;;;;;2.88;2.45;;;;;;;14.06;49.97;97130.84;5066370;28;20155;-65
2022/02/23 10:46:42;;;;;;;1.75;1.27;;;;;;;13.77;50.64;97115.22;5065983;28;20052;-67
2022/02/23 10:49:09;;;;;;;1.23;1.02;;;;;;;11.29;52.01;96782.16;5065333;28;20048;-56
2022/02/23 10:51:38;;;;;;;3.90;1.70;;;;;;;13.06;51.68;97070.19;5064677;28;20049;-61
2022/02/23 10:54:09;;;;;;;6.15;2.50;;;;;;;13.58;52.61;97142.13;5065277;28;20078;-58
2022/02/23 10:56:43;;;;;;;4.40;1.55;;;;;;;13.70;52.03;97133.44;5059015;28;20132;-58
2022/02/23 10:59:12;;;;;;;4.85;2.60;;;;;;;13.42;51.14;97074.81;5064324;28;20056;-59
2022/02/23 11:01:41;;;;;;;3.70;1.70;;;;;;;13.86;50.21;97135.13;5063035;28;20044;-61
2022/02/23 11:04:08;;;;;;;1.85;1.30;;;;;;;13.69;50.13;97137.44;5064812;28;20127;-61
2022/02/23 11:06:36;;;;;;;3.25;1.98;;;;;;;13.89;51.39;97145.50;5064595;28;20152;-61
2022/02/23 11:09:05;;;;;;;2.15;1.50;;;;;;;12.80;52.05;97053.69;5063228;28;20061;-62
2022/02/23 11:11:33;;;;;;;1.83;1.48;;;;;;;12.77;52.09;97065.53;5064776;28;20070;-62
2022/02/23 11:14:01;;;;;;;2.22;1.30;;;;;;;13.18;52.77;97147.78;5063545;28;20135;-58
2022/02/23 11:16:31;;;;;;;2.78;1.45;;;;;;;12.95;53.66;97149.94;5062839;28;20049;-55
2022/02/23 11:19:00;;;;;;;2.83;1.50;;;;;;;12.90;54.11;97139.16;5062390;28;20075;-60
2022/02/23 11:21:32;;;;;;;2.92;1.95;;;;;;;12.83;53.85;97139.09;5059867;28;20052;-58
2022/02/23 11:24:01;;;;;;;2.50;1.52;;;;;;;12.84;54.28;97140.69;5062908;28;20050;-56
2022/02/23 11:26:30;;;;;;;2.40;1.73;;;;;;;12.91;54.88;97135.22;5039887;28;20969;-57
2022/02/23 11:29:02;;;;;;;6.10;1.70;;;;;;;12.65;54.78;97135.31;5062914;28;20055;-57
2022/02/23 11:31:34;;;;;;;3.15;1.73;;;;;;;11.87;55.46;97150.25;5061941;28;20441;-60
2022/02/23 11:34:11;;;;;;;2.55;1.92;;;;;;;11.82;55.74;97130.38;5062889;28;20052;-58
2022/02/23 11:36:42;;;;;;;3.03;1.88;;;;;;;11.52;56.84;97151.72;5065236;28;20060;-58
2022/02/23 11:39:15;;;;;;;3.00;1.30;;;;;;;11.58;56.16;97134.38;5065196;28;20052;-61
2022/02/23 11:41:52;;;;;;;3.08;1.30;;;;;;;11.87;56.30;97147.47;5063461;28;20044;-56